| time (UTC) | temp C | wind direction | speed KPH | gust KPH | rain 1hr cm | rain 24hr cm | rain mn cm | humidity % | barometer mb |
| 20260902231641 | 31 | 216 | 6.4 | 9.7 | 0.00 | 0.00 | 0.00 | 67 | 1014.1 |
| 20260902231136 | 31 | 231 | 8.0 | 9.7 | 0.00 | 0.00 | 0.00 | 66 | 1014.0 |
| 20260902230631 | 31 | 234 | 8.0 | 9.7 | 0.00 | 0.00 | 0.00 | 66 | 1014.3 |
| 20260902230130 | 31 | 221 | 8.0 | 9.7 | 0.00 | 0.00 | 0.00 | 65 | 1014.0 |
| 20260902225625 | 31 | 240 | 8.0 | 17.7 | 0.00 | 0.00 | 0.00 | 65 | 1014.0 |
| 20260902225125 | 32 | 217 | 6.4 | 14.5 | 0.00 | 0.00 | 0.00 | 66 | 1013.9 |
| 20260902224623 | 32 | 194 | 6.4 | 9.7 | 0.00 | 0.00 | 0.00 | 65 | 1014.2 |
| 20260902224119 | 32 | 222 | 16.1 | 17.7 | 0.00 | 0.00 | 0.00 | 64 | 1014.1 |
| 20260902223616 | 32 | 225 | 12.9 | 14.5 | 0.00 | 0.00 | 0.00 | 63 | 1014.1 |
| 20260902223114 | 32 | 218 | 14.5 | 22.5 | 0.00 | 0.00 | 0.00 | 63 | 1014.0 |
| 20260902222613 | 32 | 238 | 6.4 | 11.3 | 0.00 | 0.00 | 0.00 | 65 | 1013.9 |
| 20260902222112 | 32 | 243 | 17.7 | 20.9 | 0.00 | 0.00 | 0.00 | 62 | 1014.0 |
| 20260902221608 | 32 | 213 | 14.5 | 20.9 | 0.00 | 0.00 | 0.00 | 63 | 1014.1 |
| 20260902221108 | 32 | 236 | 17.7 | 20.9 | 0.00 | 0.00 | 0.00 | 62 | 1014.1 |
| 20260902220603 | 32 | 213 | 9.7 | 16.1 | 0.00 | 0.00 | 0.00 | 63 | 1014.3 |
| 20260902220057 | 32 | 249 | 16.1 | 20.9 | 0.00 | 0.00 | 0.00 | 62 | 1014.2 |
| 20260902215554 | 32 | 242 | 11.3 | 20.9 | 0.00 | 0.00 | 0.00 | 63 | 1014.1 |
| 20260902215044 | 32 | 279 | 8.0 | 16.1 | 0.00 | 0.00 | 0.00 | 64 | 1014.1 |
| 20260902214543 | 32 | 246 | 17.7 | 22.5 | 0.00 | 0.00 | 0.00 | 62 | 1014.2 |
| 20260902214042 | 32 | 268 | 11.3 | 12.9 | 0.00 | 0.00 | 0.00 | 62 | 1014.2 |
| 20260902213538 | -17 | 0.0 | 0.0 | 0.00 | 0.00 | 0.00 | 1014.1 | ||
| 20260902213037 | 32 | 217 | 14.5 | 17.7 | 0.00 | 0.00 | 0.00 | 61 | 1014.1 |
| 20260902212533 | 32 | 217 | 14.5 | 17.7 | 0.00 | 0.00 | 0.00 | 61 | 1014.0 |
| 20260902212029 | 32 | 242 | 9.7 | 11.3 | 0.00 | 0.00 | 0.00 | 63 | 1014.0 |
| 20260902211525 | 32 | 242 | 11.3 | 16.1 | 0.00 | 0.00 | 0.00 | 62 | 1014.2 |
| 20260902211020 | 32 | 234 | 12.9 | 22.5 | 0.00 | 0.00 | 0.00 | 62 | 1014.2 |
| 20260902210520 | 32 | 241 | 14.5 | 17.7 | 0.00 | 0.00 | 0.00 | 63 | 1014.2 |
| 20260902210019 | 32 | 243 | 9.7 | 20.9 | 0.00 | 0.00 | 0.00 | 62 | 1014.0 |
| 20260902205514 | 32 | 221 | 14.5 | 16.1 | 0.00 | 0.00 | 0.00 | 60 | 1014.1 |
| 20260902205009 | 32 | 232 | 11.3 | 16.1 | 0.00 | 0.00 | 0.00 | 60 | 1014.3 |
| 20260902204509 | 32 | 258 | 19.3 | 25.7 | 0.00 | 0.00 | 0.00 | 58 | 1014.3 |
| 20260902204004 | 32 | 226 | 12.9 | 20.9 | 0.00 | 0.00 | 0.00 | 61 | 1014.1 |
| 20260902203500 | 32 | 250 | 8.0 | 20.9 | 0.00 | 0.00 | 0.00 | 61 | 1014.5 |
| 20260902202958 | 32 | 243 | 9.7 | 16.1 | 0.00 | 0.00 | 0.00 | 61 | 1014.6 |
| 20260902202454 | 32 | 242 | 12.9 | 17.7 | 0.00 | 0.00 | 0.00 | 61 | 1014.8 |
| 20260902201951 | 32 | 224 | 9.7 | 12.9 | 0.00 | 0.00 | 0.00 | 60 | 1014.5 |
| 20260902201446 | 32 | 204 | 16.1 | 22.5 | 0.00 | 0.00 | 0.00 | 59 | 1015.0 |
| 20260902200946 | 32 | 236 | 12.9 | 14.5 | 0.00 | 0.00 | 0.00 | 60 | 1014.8 |
| 20260902200441 | 32 | 238 | 12.9 | 17.7 | 0.00 | 0.00 | 0.00 | 59 | 1014.8 |
| 20260902195936 | 32 | 245 | 9.7 | 25.7 | 0.00 | 0.00 | 0.00 | 60 | 1014.9 |
| 20260902195432 | 32 | 177 | 9.7 | 12.9 | 0.00 | 0.00 | 0.00 | 62 | 1014.9 |
| 20260902194926 | 32 | 259 | 14.5 | 16.1 | 0.00 | 0.00 | 0.00 | 62 | 1015.2 |
| 20260902194425 | 32 | 266 | 16.1 | 20.9 | 0.00 | 0.00 | 0.00 | 59 | 1015.1 |
| 20260902193920 | 32 | 242 | 6.4 | 14.5 | 0.00 | 0.00 | 0.00 | 60 | 1015.1 |
| 20260902193417 | 32 | 257 | 8.0 | 14.5 | 0.00 | 0.00 | 0.00 | 56 | 1014.9 |
| 20260902192915 | 32 | 250 | 9.7 | 16.1 | 0.00 | 0.00 | 0.00 | 59 | 1015.3 |
| 20260902192414 | 32 | 252 | 9.7 | 17.7 | 0.00 | 0.00 | 0.00 | 59 | 1015.1 |
| 20260902191913 | 32 | 259 | 6.4 | 16.1 | 0.00 | 0.00 | 0.00 | 62 | 1015.2 |
| 20260902191409 | 32 | 247 | 20.9 | 24.1 | 0.00 | 0.00 | 0.00 | 57 | 1015.1 |
| 20260902190904 | 32 | 227 | 14.5 | 14.5 | 0.00 | 0.00 | 0.00 | 58 | 1015.4 |
| 20260902190404 | 32 | 237 | 16.1 | 24.1 | 0.00 | 0.00 | 0.00 | 57 | 1015.5 |
| 20260902185900 | 32 | 259 | 16.1 | 20.9 | 0.00 | 0.00 | 0.00 | 58 | 1015.5 |
| 20260902185356 | 32 | 268 | 9.7 | 16.1 | 0.00 | 0.00 | 0.00 | 58 | 1015.4 |
| 20260902184851 | 32 | 280 | 14.5 | 20.9 | 0.00 | 0.00 | 0.00 | 57 | 1015.6 |
| 20260902184346 | 32 | 240 | 8.0 | 20.9 | 0.00 | 0.00 | 0.00 | 60 | 1015.5 |
| 20260902183842 | 32 | 271 | 16.1 | 20.9 | 0.00 | 0.00 | 0.00 | 59 | 1015.6 |
| 20260902183338 | 32 | 291 | 12.9 | 22.5 | 0.00 | 0.00 | 0.00 | 58 | 1015.6 |
| 20260902182834 | 32 | 284 | 14.5 | 17.7 | 0.00 | 0.00 | 0.00 | 58 | 1015.8 |
| 20260902182330 | 32 | 258 | 9.7 | 17.7 | 0.00 | 0.00 | 0.00 | 59 | 1015.7 |
| 20260902181826 | 32 | 239 | 12.9 | 14.5 | 0.00 | 0.00 | 0.00 | 60 | 1015.8 |
| 20260902181321 | 32 | 224 | 11.3 | 16.1 | 0.00 | 0.00 | 0.00 | 57 | 1015.8 |
| 20260902180815 | 32 | 255 | 20.9 | 24.1 | 0.00 | 0.00 | 0.00 | 58 | 1015.7 |
| 20260902180311 | 32 | 246 | 11.3 | 24.1 | 0.00 | 0.00 | 0.00 | 60 | 1015.8 |
| 20260902175807 | 32 | 228 | 14.5 | 22.5 | 0.00 | 0.00 | 0.00 | 56 | 1015.7 |
| 20260902175307 | 32 | 261 | 14.5 | 17.7 | 0.00 | 0.00 | 0.00 | 60 | 1015.9 |
| 20260902174757 | 32 | 243 | 14.5 | 17.7 | 0.00 | 0.00 | 0.00 | 59 | 1016.3 |
| 20260902174253 | 32 | 277 | 16.1 | 17.7 | 0.00 | 0.00 | 0.00 | 59 | 1016.2 |
| 20260902173749 | 32 | 262 | 8.0 | 14.5 | 0.00 | 0.00 | 0.00 | 61 | 1016.1 |
| 20260902173243 | 32 | 259 | 6.4 | 12.9 | 0.00 | 0.00 | 0.00 | 63 | 1016.4 |
| 20260902172738 | 32 | 259 | 8.0 | 16.1 | 0.00 | 0.00 | 0.00 | 62 | 1016.5 |
| 20260902172237 | 32 | 261 | 9.7 | 14.5 | 0.00 | 0.00 | 0.00 | 64 | 1016.4 |
| 20260902171732 | 32 | 299 | 9.7 | 16.1 | 0.00 | 0.00 | 0.00 | 61 | 1016.3 |
| 20260902171227 | 32 | 252 | 11.3 | 12.9 | 0.00 | 0.00 | 0.00 | 62 | 1016.2 |
| 20260902170724 | 32 | 277 | 9.7 | 12.9 | 0.00 | 0.00 | 0.00 | 66 | 1016.5 |
| 20260902170219 | 32 | 287 | 6.4 | 14.5 | 0.00 | 0.00 | 0.00 | 62 | 1016.4 |
| 20260902165714 | 32 | 261 | 9.7 | 14.5 | 0.00 | 0.00 | 0.00 | 64 | 1016.1 |
| 20260902165209 | 31 | 250 | 8.0 | 14.5 | 0.00 | 0.00 | 0.00 | 65 | 1016.5 |
| 20260902164709 | 32 | 255 | 8.0 | 16.1 | 0.00 | 0.00 | 0.00 | 65 | 1016.4 |
| 20260902164209 | 31 | 290 | 11.3 | 14.5 | 0.00 | 0.00 | 0.00 | 63 | 1016.5 |
| 20260902163703 | 31 | 282 | 9.7 | 11.3 | 0.00 | 0.00 | 0.00 | 65 | 1016.6 |
| 20260902163203 | 31 | 285 | 11.3 | 16.1 | 0.00 | 0.00 | 0.00 | 63 | 1016.9 |
| 20260902162702 | 31 | 270 | 12.9 | 14.5 | 0.00 | 0.00 | 0.00 | 62 | 1016.9 |
| 20260902162156 | 31 | 267 | 8.0 | 14.5 | 0.00 | 0.00 | 0.00 | 66 | 1016.8 |
| 20260902161652 | 31 | 266 | 8.0 | 11.3 | 0.00 | 0.00 | 0.00 | 68 | 1016.6 |
| 20260902161147 | 31 | 284 | 11.3 | 14.5 | 0.00 | 0.00 | 0.00 | 64 | 1016.8 |
| 20260902160644 | 31 | 267 | 12.9 | 12.9 | 0.00 | 0.00 | 0.00 | 65 | 1016.6 |
| 20260902160138 | 31 | 281 | 11.3 | 16.1 | 0.00 | 0.00 | 0.00 | 64 | 1016.8 |
| 20260902155637 | 31 | 262 | 12.9 | 16.1 | 0.00 | 0.00 | 0.00 | 67 | 1016.8 |
| 20260902155135 | 31 | 260 | 9.7 | 12.9 | 0.00 | 0.00 | 0.00 | 67 | 1016.8 |
| 20260902154631 | 31 | 268 | 11.3 | 14.5 | 0.00 | 0.00 | 0.00 | 66 | 1016.6 |
| 20260902154126 | 31 | 275 | 6.4 | 12.9 | 0.00 | 0.00 | 0.00 | 69 | 1016.5 |
| 20260902153625 | 30 | 287 | 8.0 | 11.3 | 0.00 | 0.00 | 0.00 | 67 | 1016.6 |
| 20260902153120 | 30 | 267 | 9.7 | 11.3 | 0.00 | 0.00 | 0.00 | 70 | 1016.4 |
| 20260902152616 | 30 | 276 | 6.4 | 12.9 | 0.00 | 0.00 | 0.00 | 69 | 1016.4 |
| 20260902152112 | 30 | 222 | 9.7 | 11.3 | 0.00 | 0.00 | 0.00 | 69 | 1016.5 |
| 20260902151607 | 30 | 269 | 4.8 | 9.7 | 0.00 | 0.00 | 0.00 | 72 | 1016.5 |
| 20260902151107 | 30 | 270 | 6.4 | 11.3 | 0.00 | 0.00 | 0.00 | 70 | 1016.7 |
| 20260902150603 | 30 | 291 | 9.7 | 20.9 | 0.00 | 0.00 | 0.00 | 68 | 1016.8 |
| 20260902150058 | 30 | 251 | 11.3 | 14.5 | 0.00 | 0.00 | 0.00 | 69 | 1016.5 |
| 20260902145557 | 30 | 282 | 8.0 | 11.3 | 0.00 | 0.00 | 0.00 | 70 | 1016.4 |
| 20260902145057 | 30 | 286 | 3.2 | 12.9 | 0.00 | 0.00 | 0.00 | 73 | 1016.4 |
| 20260902144555 | 29 | 275 | 11.3 | 14.5 | 0.00 | 0.00 | 0.00 | 70 | 1016.6 |
| 20260902144054 | 29 | 288 | 8.0 | 11.3 | 0.00 | 0.00 | 0.00 | 70 | 1016.7 |
| 20260902143550 | 29 | 285 | 16.1 | 20.9 | 0.00 | 0.00 | 0.00 | 69 | 1016.9 |
| 20260902143045 | 29 | 285 | 9.7 | 12.9 | 0.00 | 0.00 | 0.00 | 73 | 1016.7 |
| 20260902142543 | 28 | 273 | 9.7 | 12.9 | 0.00 | 0.00 | 0.00 | 71 | 1016.7 |
| 20260902142036 | 28 | 279 | 9.7 | 16.1 | 0.00 | 0.00 | 0.00 | 72 | 1016.4 |
| 20260902141536 | 28 | 266 | 6.4 | 11.3 | 0.00 | 0.00 | 0.00 | 75 | 1016.7 |
| 20260902141032 | 28 | 275 | 9.7 | 11.3 | 0.00 | 0.00 | 0.00 | 74 | 1016.6 |
| 20260902140532 | 28 | 321 | 6.4 | 9.7 | 0.00 | 0.00 | 0.00 | 74 | 1016.4 |
| 20260902140027 | 28 | 274 | 6.4 | 11.3 | 0.00 | 0.00 | 0.00 | 75 | 1016.7 |
| 20260902135526 | 28 | 275 | 9.7 | 11.3 | 0.00 | 0.00 | 0.00 | 74 | 1016.5 |
| 20260902135021 | 27 | 280 | 6.4 | 9.7 | 0.00 | 0.00 | 0.00 | 77 | 1016.5 |
| 20260902134518 | 27 | 262 | 6.4 | 12.9 | 0.00 | 0.00 | 0.00 | 77 | 1016.6 |
| 20260902134017 | 27 | 277 | 6.4 | 14.5 | 0.00 | 0.00 | 0.00 | 76 | 1016.7 |
| 20260902133512 | 27 | 256 | 6.4 | 11.3 | 0.00 | 0.00 | 0.00 | 77 | 1016.6 |
| 20260902133012 | 27 | 277 | 9.7 | 14.5 | 0.00 | 0.00 | 0.00 | 78 | 1016.7 |
| 20260902132507 | 26 | 273 | 6.4 | 9.7 | 0.00 | 0.00 | 0.00 | 79 | 1016.4 |
| 20260902132002 | 26 | 251 | 3.2 | 9.7 | 0.00 | 0.00 | 0.00 | 81 | 1016.7 |
| 20260902131459 | 26 | 262 | 6.4 | 9.7 | 0.00 | 0.00 | 0.00 | 81 | 1016.7 |
| 20260902130958 | 26 | 251 | 6.4 | 9.7 | 0.00 | 0.00 | 0.00 | 82 | 1016.5 |
| 20260902130454 | 26 | 259 | 6.4 | 11.3 | 0.00 | 0.00 | 0.00 | 82 | 1016.6 |
| 20260902125949 | 25 | 248 | 8.0 | 11.3 | 0.00 | 0.00 | 0.00 | 82 | 1016.5 |
| 20260902125445 | 25 | 253 | 9.7 | 12.9 | 0.00 | 0.00 | 0.00 | 83 | 1016.5 |
| 20260902124941 | 25 | 242 | 6.4 | 11.3 | 0.00 | 0.00 | 0.00 | 83 | 1016.6 |
| 20260902124437 | 25 | 261 | 9.7 | 11.3 | 0.00 | 0.00 | 0.00 | 83 | 1016.5 |
| 20260902123932 | 25 | 255 | 4.8 | 9.7 | 0.00 | 0.00 | 0.00 | 84 | 1016.5 |
| 20260902123428 | 25 | 279 | 4.8 | 6.4 | 0.00 | 0.00 | 0.00 | 84 | 1016.5 |
| 20260902122926 | 24 | 267 | 4.8 | 6.4 | 0.00 | 0.00 | 0.00 | 85 | 1016.7 |
| 20260902122422 | 24 | 272 | 4.8 | 9.7 | 0.00 | 0.00 | 0.00 | 85 | 1016.6 |
| 20260902121918 | 24 | 257 | 4.8 | 9.7 | 0.00 | 0.00 | 0.00 | 85 | 1016.5 |
| 20260902121412 | 24 | 262 | 4.8 | 6.4 | 0.00 | 0.00 | 0.00 | 86 | 1016.7 |
| 20260902120907 | 23 | 239 | 3.2 | 6.4 | 0.00 | 0.00 | 0.00 | 86 | 1016.4 |
| 20260902120404 | 23 | 255 | 3.2 | 4.8 | 0.00 | 0.00 | 0.00 | 87 | 1016.4 |
| 20260902115903 | 23 | 255 | 3.2 | 6.4 | 0.00 | 0.00 | 0.00 | 86 | 1016.4 |
| 20260902115359 | 23 | 251 | 3.2 | 6.4 | 0.00 | 0.00 | 0.00 | 86 | 1016.5 |
| 20260902114856 | 23 | 247 | 3.2 | 6.4 | 0.00 | 0.00 | 0.00 | 86 | 1016.3 |
| 20260902114351 | 23 | 257 | 4.8 | 4.8 | 0.00 | 0.00 | 0.00 | 87 | 1016.3 |
| 20260902113851 | 23 | 240 | 3.2 | 4.8 | 0.00 | 0.00 | 0.00 | 86 | 1016.5 |
| 20260902113347 | 23 | 250 | 4.8 | 6.4 | 0.00 | 0.00 | 0.00 | 86 | 1016.2 |
| 20260902112846 | 23 | 231 | 4.8 | 6.4 | 0.00 | 0.00 | 0.00 | 87 | 1016.2 |
| 20260902112343 | 23 | 240 | 4.8 | 9.7 | 0.00 | 0.00 | 0.00 | 86 | 1016.1 |
| 20260902111838 | 23 | 217 | 4.8 | 6.4 | 0.00 | 0.00 | 0.00 | 87 | 1016.1 |
| 20260902111335 | 23 | 236 | 4.8 | 6.4 | 0.00 | 0.00 | 0.00 | 87 | 1016.1 |
| 20260902110830 | 23 | 222 | 3.2 | 6.4 | 0.00 | 0.00 | 0.00 | 86 | 1016.1 |
| 20260902110326 | 23 | 231 | 4.8 | 6.4 | 0.00 | 0.00 | 0.00 | 86 | 1015.9 |
| 20260902105825 | 23 | 227 | 4.8 | 9.7 | 0.00 | 0.00 | 0.00 | 87 | 1016.0 |
| 20260902105320 | 23 | 211 | 4.8 | 4.8 | 0.00 | 0.00 | 0.00 | 87 | 1015.7 |
| 20260902104815 | 23 | 204 | 4.8 | 4.8 | 0.00 | 0.00 | 0.00 | 88 | 1015.9 |
| 20260902104312 | 23 | 193 | 3.2 | 4.8 | 0.00 | 0.00 | 0.00 | 88 | 1015.9 |
| 20260902103811 | 23 | 196 | 3.2 | 3.2 | 0.00 | 0.00 | 0.00 | 87 | 1016.0 |
| 20260902103306 | 23 | 198 | 1.6 | 6.4 | 0.00 | 0.00 | 0.00 | 87 | 1015.9 |
| 20260902102801 | 23 | 203 | 3.2 | 3.2 | 0.00 | 0.00 | 0.00 | 87 | 1015.6 |
| 20260902102259 | 23 | 204 | 1.6 | 3.2 | 0.00 | 0.00 | 0.00 | 86 | 1015.7 |
| 20260902101754 | 23 | 185 | 3.2 | 4.8 | 0.00 | 0.00 | 0.00 | 86 | 1015.7 |
| 20260902101249 | 23 | 219 | 3.2 | 4.8 | 0.00 | 0.00 | 0.00 | 86 | 1015.7 |
| 20260902100749 | 23 | 241 | 6.4 | 6.4 | 0.00 | 0.00 | 0.00 | 85 | 1015.8 |
| 20260902100249 | 24 | 201 | 6.4 | 9.7 | 0.00 | 0.00 | 0.00 | 85 | 1015.5 |
| 20260902095744 | 24 | 204 | 4.8 | 11.3 | 0.00 | 0.00 | 0.00 | 85 | 1015.7 |
| 20260902095243 | 24 | 225 | 4.8 | 9.7 | 0.00 | 0.00 | 0.00 | 85 | 1015.5 |
| 20260902094738 | 24 | 224 | 6.4 | 6.4 | 0.00 | 0.00 | 0.00 | 85 | 1015.6 |
| 20260902094235 | 24 | 217 | 3.2 | 6.4 | 0.00 | 0.00 | 0.00 | 85 | 1015.6 |
| 20260902093733 | 24 | 252 | 4.8 | 6.4 | 0.00 | 0.00 | 0.00 | 86 | 1015.6 |
| 20260902093229 | 24 | 225 | 4.8 | 4.8 | 0.00 | 0.00 | 0.00 | 86 | 1015.7 |
| 20260902092728 | 24 | 220 | 3.2 | 4.8 | 0.00 | 0.00 | 0.00 | 86 | 1015.8 |
| 20260902092224 | 24 | 221 | 1.6 | 4.8 | 0.00 | 0.00 | 0.00 | 86 | 1015.6 |
| 20260902091723 | 24 | 252 | 3.2 | 4.8 | 0.00 | 0.00 | 0.00 | 86 | 1015.6 |
| 20260902091220 | 24 | 220 | 3.2 | 3.2 | 0.00 | 0.00 | 0.00 | 86 | 1015.6 |
| 20260902090716 | 24 | 221 | 1.6 | 3.2 | 0.00 | 0.00 | 0.00 | 86 | 1015.5 |
| 20260902090214 | 24 | 212 | 3.2 | 4.8 | 0.00 | 0.00 | 0.00 | 85 | 1015.5 |
| 20260902085709 | 24 | 219 | 3.2 | 4.8 | 0.00 | 0.00 | 0.00 | 85 | 1015.8 |
| 20260902085204 | 24 | 242 | 3.2 | 4.8 | 0.00 | 0.00 | 0.00 | 85 | 1015.6 |
| 20260902084701 | 24 | 238 | 3.2 | 4.8 | 0.00 | 0.00 | 0.00 | 85 | 1015.7 |
| 20260902084157 | 24 | 230 | 3.2 | 3.2 | 0.00 | 0.00 | 0.00 | 85 | 1015.6 |
| 20260902083651 | 24 | 227 | 3.2 | 4.8 | 0.00 | 0.00 | 0.00 | 85 | 1015.5 |
| 20260902083151 | 25 | 224 | 3.2 | 6.4 | 0.00 | 0.00 | 0.00 | 85 | 1015.5 |
| 20260902082646 | 24 | 218 | 6.4 | 9.7 | 0.00 | 0.00 | 0.00 | 86 | 1015.6 |
| 20260902082143 | 25 | 216 | 3.2 | 6.4 | 0.00 | 0.00 | 0.00 | 86 | 1015.3 |
| 20260902081639 | 25 | 237 | 4.8 | 4.8 | 0.00 | 0.00 | 0.00 | 86 | 1015.6 |
| 20260902081139 | 25 | 238 | 4.8 | 9.7 | 0.00 | 0.00 | 0.00 | 86 | 1015.5 |
| 20260902080635 | 25 | 241 | 6.4 | 6.4 | 0.00 | 0.00 | 0.00 | 86 | 1015.6 |
| 20260902080132 | 25 | 245 | 3.2 | 6.4 | 0.00 | 0.00 | 0.00 | 86 | 1015.5 |
| 20260902075631 | 24 | 255 | 4.8 | 4.8 | 0.00 | 0.00 | 0.00 | 87 | 1015.5 |
| 20260902075127 | 25 | 241 | 3.2 | 6.4 | 0.00 | 0.00 | 0.00 | 87 | 1015.3 |
| 20260902074622 | 24 | 215 | 6.4 | 6.4 | 0.00 | 0.00 | 0.00 | 87 | 1015.2 |
| 20260902074117 | 24 | 238 | 3.2 | 6.4 | 0.00 | 0.00 | 0.00 | 87 | 1015.3 |
| 20260902073612 | 24 | 242 | 4.8 | 9.7 | 0.00 | 0.00 | 0.00 | 87 | 1015.4 |
| 20260902073109 | 24 | 253 | 3.2 | 4.8 | 0.00 | 0.00 | 0.00 | 87 | 1015.4 |
| 20260902072604 | 24 | 249 | 3.2 | 6.4 | 0.00 | 0.00 | 0.00 | 88 | 1015.5 |
| 20260902072101 | 24 | 234 | 1.6 | 6.4 | 0.00 | 0.00 | 0.00 | 88 | 1015.3 |
| 20260902071601 | 24 | 223 | 1.6 | 4.8 | 0.00 | 0.00 | 0.00 | 88 | 1015.3 |
| 20260902071057 | 24 | 202 | 4.8 | 4.8 | 0.00 | 0.00 | 0.00 | 89 | 1015.5 |
| 20260902070552 | 24 | 223 | 3.2 | 4.8 | 0.00 | 0.00 | 0.00 | 89 | 1015.4 |
| 20260902070047 | 24 | 214 | 3.2 | 3.2 | 0.00 | 0.00 | 0.00 | 90 | 1015.5 |
| 20260902065540 | 24 | 236 | 3.2 | 3.2 | 0.00 | 0.00 | 0.00 | 89 | 1015.2 |
| 20260902065036 | 24 | 170 | 3.2 | 4.8 | 0.00 | 0.00 | 0.00 | 89 | 1015.4 |
| 20260902064532 | 24 | 190 | 3.2 | 4.8 | 0.00 | 0.00 | 0.00 | 89 | 1015.7 |
| 20260902064027 | 25 | 206 | 4.8 | 6.4 | 0.00 | 0.00 | 0.00 | 88 | 1015.5 |
| 20260902063526 | 25 | 228 | 6.4 | 6.4 | 0.00 | 0.00 | 0.00 | 88 | 1015.5 |
| 20260902063022 | 25 | 217 | 3.2 | 4.8 | 0.00 | 0.00 | 0.00 | 88 | 1015.5 |
| 20260902062520 | 25 | 214 | 6.4 | 6.4 | 0.00 | 0.00 | 0.00 | 88 | 1015.8 |
| 20260902062016 | 25 | 220 | 3.2 | 4.8 | 0.00 | 0.00 | 0.00 | 88 | 1015.7 |
| 20260902061511 | 25 | 214 | 4.8 | 6.4 | 0.00 | 0.00 | 0.00 | 88 | 1015.7 |
| 20260902061007 | 25 | 229 | 4.8 | 9.7 | 0.00 | 0.00 | 0.00 | 87 | 1015.6 |
| 20260902060503 | 25 | 202 | 6.4 | 9.7 | 0.00 | 0.00 | 0.00 | 87 | 1015.7 |
| 20260902055959 | 25 | 218 | 8.0 | 11.3 | 0.00 | 0.00 | 0.00 | 87 | 1015.6 |
| 20260902055455 | 25 | 232 | 6.4 | 9.7 | 0.00 | 0.00 | 0.00 | 87 | 1015.8 |
| 20260902054950 | 25 | 225 | 3.2 | 9.7 | 0.00 | 0.00 | 0.00 | 87 | 1015.6 |
| 20260902054449 | 25 | 227 | 4.8 | 9.7 | 0.00 | 0.00 | 0.00 | 87 | 1015.7 |
| 20260902053945 | 25 | 227 | 4.8 | 9.7 | 0.00 | 0.00 | 0.00 | 87 | 1015.5 |
| 20260902053440 | 25 | 228 | 6.4 | 9.7 | 0.00 | 0.00 | 0.00 | 86 | 1015.5 |
| 20260902052939 | 25 | 247 | 6.4 | 9.7 | 0.00 | 0.00 | 0.00 | 86 | 1015.6 |
| 20260902052434 | 25 | 236 | 3.2 | 6.4 | 0.00 | 0.00 | 0.00 | 86 | 1015.6 |
| 20260902051931 | 26 | 235 | 3.2 | 4.8 | 0.00 | 0.00 | 0.00 | 85 | 1015.5 |
| 20260902051430 | 26 | 230 | 3.2 | 4.8 | 0.00 | 0.00 | 0.00 | 85 | 1015.6 |
| 20260902050929 | 26 | 237 | 4.8 | 4.8 | 0.00 | 0.00 | 0.00 | 85 | 1015.4 |
| 20260902050429 | 26 | 238 | 8.0 | 11.3 | 0.00 | 0.00 | 0.00 | 84 | 1015.6 |
| 20260902045924 | 26 | 225 | 4.8 | 11.3 | 0.00 | 0.00 | 0.00 | 84 | 1015.4 |
| 20260902045419 | 26 | 237 | 4.8 | 11.3 | 0.00 | 0.00 | 0.00 | 84 | 1015.4 |
| 20260902044916 | 26 | 237 | 8.0 | 11.3 | 0.00 | 0.00 | 0.00 | 83 | 1015.3 |
| 20260902044411 | 26 | 240 | 8.0 | 14.5 | 0.00 | 0.00 | 0.00 | 83 | 1015.5 |
| 20260902043906 | 26 | 244 | 4.8 | 12.9 | 0.00 | 0.00 | 0.00 | 83 | 1015.5 |
| 20260902043401 | 26 | 249 | 11.3 | 14.5 | 0.00 | 0.00 | 0.00 | 83 | 1015.4 |
| 20260902042856 | 26 | 243 | 9.7 | 14.5 | 0.00 | 0.00 | 0.00 | 83 | 1015.6 |
| 20260902042356 | 26 | 260 | 11.3 | 14.5 | 0.00 | 0.00 | 0.00 | 82 | 1015.3 |
| 20260902041851 | 26 | 252 | 11.3 | 16.1 | 0.00 | 0.00 | 0.00 | 82 | 1015.2 |
| 20260902041351 | 26 | 249 | 9.7 | 14.5 | 0.00 | 0.00 | 0.00 | 82 | 1015.1 |
| 20260902040850 | 26 | 228 | 9.7 | 11.3 | 0.00 | 0.00 | 0.00 | 83 | 1015.2 |
| 20260902040345 | 26 | 210 | 6.4 | 14.5 | 0.00 | 0.00 | 0.00 | 83 | 1015.3 |
| 20260902035844 | 26 | 203 | 9.7 | 12.9 | 0.00 | 0.00 | 0.00 | 84 | 1015.3 |
| 20260902035340 | 26 | 241 | 6.4 | 9.7 | 0.00 | 0.00 | 0.00 | 84 | 1015.5 |
| 20260902034838 | 26 | 240 | 4.8 | 9.7 | 0.00 | 0.00 | 0.00 | 84 | 1015.5 |
| 20260902034334 | 26 | 246 | 4.8 | 9.7 | 0.00 | 0.00 | 0.00 | 84 | 1015.6 |
| 20260902033832 | 26 | 221 | 6.4 | 6.4 | 0.00 | 0.00 | 0.00 | 83 | 1015.5 |
| 20260902033327 | 26 | 245 | 6.4 | 6.4 | 0.00 | 0.00 | 0.00 | 83 | 1015.4 |
| 20260902032826 | 26 | 219 | 6.4 | 9.7 | 0.00 | 0.00 | 0.00 | 83 | 1015.5 |
| 20260902032321 | 26 | 237 | 3.2 | 4.8 | 0.00 | 0.00 | 0.00 | 83 | 1015.5 |
| 20260902031821 | 26 | 226 | 6.4 | 9.7 | 0.00 | 0.00 | 0.00 | 83 | 1015.5 |
| 20260902031317 | 26 | 225 | 4.8 | 9.7 | 0.00 | 0.00 | 0.00 | 83 | 1015.6 |
| 20260902030813 | 26 | 225 | 3.2 | 11.3 | 0.00 | 0.00 | 0.00 | 83 | 1015.6 |
| 20260902030307 | 26 | 217 | 4.8 | 6.4 | 0.00 | 0.00 | 0.00 | 83 | 1015.6 |
| 20260902025806 | 26 | 226 | 4.8 | 6.4 | 0.00 | 0.00 | 0.00 | 83 | 1015.6 |
| 20260902025306 | 26 | 173 | 3.2 | 6.4 | 0.00 | 0.00 | 0.00 | 83 | 1015.7 |
| 20260902024756 | 27 | 207 | 3.2 | 4.8 | 0.00 | 0.00 | 0.00 | 83 | 1015.7 |
| 20260902024251 | 27 | 220 | 4.8 | 6.4 | 0.00 | 0.00 | 0.00 | 82 | 1015.7 |
| 20260902023747 | 27 | 223 | 9.7 | 12.9 | 0.00 | 0.00 | 0.00 | 82 | 1015.7 |
| 20260902023243 | 27 | 196 | 4.8 | 4.8 | 0.00 | 0.00 | 0.00 | 82 | 1015.6 |
| 20260902022742 | 27 | 201 | 4.8 | 6.4 | 0.00 | 0.00 | 0.00 | 82 | 1015.6 |
| 20260902022238 | 27 | 201 | 4.8 | 6.4 | 0.00 | 0.00 | 0.00 | 82 | 1015.4 |
| 20260902021733 | 27 | 190 | 4.8 | 9.7 | 0.00 | 0.00 | 0.00 | 82 | 1015.8 |
| 20260902021233 | 27 | 208 | 6.4 | 6.4 | 0.00 | 0.00 | 0.00 | 82 | 1015.7 |
| 20260902020729 | 27 | 194 | 4.8 | 4.8 | 0.00 | 0.00 | 0.00 | 82 | 1015.2 |
| 20260902020225 | 27 | 189 | 4.8 | 6.4 | 0.00 | 0.00 | 0.00 | 81 | 1015.4 |
| 20260902015720 | 27 | 215 | 6.4 | 6.4 | 0.00 | 0.00 | 0.00 | 82 | 1015.5 |
| 20260902015217 | 27 | 216 | 4.8 | 6.4 | 0.00 | 0.00 | 0.00 | 82 | 1015.3 |
| 20260902014712 | 27 | 204 | 6.4 | 6.4 | 0.00 | 0.00 | 0.00 | 81 | 1015.3 |
| 20260902014208 | 27 | 192 | 4.8 | 4.8 | 0.00 | 0.00 | 0.00 | 82 | 1015.2 |
| 20260902013706 | 27 | 194 | 3.2 | 4.8 | 0.00 | 0.00 | 0.00 | 82 | 1015.5 |
| 20260902013202 | 27 | 186 | 4.8 | 4.8 | 0.00 | 0.00 | 0.00 | 82 | 1015.3 |
| 20260902012657 | 27 | 180 | 3.2 | 4.8 | 0.00 | 0.00 | 0.00 | 81 | 1015.3 |
| 20260902012153 | 27 | 182 | 3.2 | 4.8 | 0.00 | 0.00 | 0.00 | 80 | 1015.1 |
| 20260902011649 | 27 | 193 | 4.8 | 4.8 | 0.00 | 0.00 | 0.00 | 79 | 1015.1 |
| 20260902011148 | 27 | 189 | 4.8 | 4.8 | 0.00 | 0.00 | 0.00 | 79 | 1014.9 |
| 20260902010648 | 27 | 193 | 4.8 | 4.8 | 0.00 | 0.00 | 0.00 | 79 | 1015.0 |
| 20260902010144 | 27 | 193 | 4.8 | 4.8 | 0.00 | 0.00 | 0.00 | 79 | 1014.8 |
| 20260902005641 | 28 | 201 | 4.8 | 6.4 | 0.00 | 0.00 | 0.00 | 79 | 1014.9 |
| 20260902005138 | 28 | 192 | 6.4 | 6.4 | 0.00 | 0.00 | 0.00 | 78 | 1015.0 |
| 20260902004637 | 28 | 188 | 4.8 | 4.8 | 0.00 | 0.00 | 0.00 | 78 | 1014.8 |
| 20260902004132 | 28 | 179 | 3.2 | 4.8 | 0.00 | 0.00 | 0.00 | 78 | 1014.5 |
| 20260902003628 | 28 | 193 | 4.8 | 6.4 | 0.00 | 0.00 | 0.00 | 77 | 1014.9 |
| 20260902003123 | 28 | 191 | 4.8 | 4.8 | 0.00 | 0.00 | 0.00 | 77 | 1014.7 |
| 20260902002618 | 28 | 173 | 4.8 | 4.8 | 0.00 | 0.00 | 0.00 | 76 | 1014.9 |
| 20260902002113 | 28 | 169 | 1.6 | 3.2 | 0.00 | 0.00 | 0.00 | 75 | 1014.8 |
| 20260902001608 | 29 | 170 | 3.2 | 3.2 | 0.00 | 0.00 | 0.00 | 74 | 1015.0 |
| 20260902001103 | 29 | 176 | 3.2 | 3.2 | 0.00 | 0.00 | 0.00 | 74 | 1014.9 |
| 20260902000558 | 29 | 188 | 4.8 | 4.8 | 0.00 | 0.00 | 0.00 | 74 | 1014.9 |
| 20260902000053 | 30 | 193 | 3.2 | 4.8 | 0.00 | 0.00 | 0.00 | 73 | 1015.0 |
| 20260901235547 | 30 | 187 | 4.8 | 6.4 | 0.00 | 0.00 | 0.00 | 72 | 1015.0 |
| 20260901235043 | 30 | 200 | 3.2 | 4.8 | 0.00 | 0.00 | 0.00 | 71 | 1015.0 |
| 20260901234542 | 30 | 223 | 4.8 | 6.4 | 0.00 | 0.00 | 0.00 | 70 | 1015.1 |
| 20260901234037 | 30 | 210 | 3.2 | 9.7 | 0.00 | 0.00 | 0.00 | 71 | 1015.1 |
| 20260901233536 | 30 | 188 | 4.8 | 4.8 | 0.00 | 0.00 | 0.00 | 71 | 1015.2 |
| 20260901233034 | 31 | 196 | 4.8 | 6.4 | 0.00 | 0.00 | 0.00 | 71 | 1015.3 |
| 20260901232528 | 31 | 193 | 6.4 | 6.4 | 0.00 | 0.00 | 0.00 | 71 | 1015.2 |
| 20260901232024 | 31 | 189 | 3.2 | 4.8 | 0.00 | 0.00 | 0.00 | 70 | 1015.2 |